Main page
METAR-TAF:

METAR-TAF

Airports :

Chennault International Airport

Lake Charles, Louisiana, United States

latitude: 30-13N, longitude: 093-09W, elevation: 13 ft

Current weather observation

The report was made 25 minutes ago, at 09:55 UTC
Wind 6 mph from the North/Northeast
Temperature 57°F
Humidity 100%
Pressure 30.12 in. Hg
Visibility: 10 miles
Broken clouds at a height of 8500 ft
Broken clouds at a height of 12000 ft

METAR: KCWF 190955Z 03005KT 10SM BKN085 BKN120 14/14 A3012 RMK AO2 T01450142 PWINO

Time: 04:20 (10:20 UTC)


TAF: missing

Weather observations and forecasts of more than 4000 airports (METAR and TAF reports).

The available stations are represented by yellow and red dots on the map.

Hover mouse over dot to see the name of the station.

Then click to see weather observations and forecasts.

To change the map : click on the green buttons with a black cross to zoom in, on the green button with a dash to zoom out, or on the green arrows for adjacent maps.


METAR-TAF: